sensor_id;sensor_type;location;lat;lon;timestamp;temperature;humidity
13944;DHT22;7044;53.286;8.534;2024-03-08T00:02:19;2.60;99.90
13944;DHT22;7044;53.286;8.534;2024-03-08T00:04:46;2.70;99.90
13944;DHT22;7044;53.286;8.534;2024-03-08T00:07:13;2.50;99.90
13944;DHT22;7044;53.286;8.534;2024-03-08T00:09:40;2.40;99.90
13944;DHT22;7044;53.286;8.534;2024-03-08T00:12:08;3.50;99.90
13944;DHT22;7044;53.286;8.534;2024-03-08T00:14:35;2.50;99.90
13944;DHT22;7044;53.286;8.534;2024-03-08T00:17:04;2.50;99.90
13944;DHT22;7044;53.286;8.534;2024-03-08T00:19:31;2.40;99.90
13944;DHT22;7044;53.286;8.534;2024-03-08T00:21:57;2.50;99.90
13944;DHT22;7044;53.286;8.534;2024-03-08T00:24:24;2.80;99.90
13944;DHT22;7044;53.286;8.534;2024-03-08T00:26:51;2.40;99.90
13944;DHT22;7044;53.286;8.534;2024-03-08T00:29:21;2.60;99.90
13944;DHT22;7044;53.286;8.534;2024-03-08T00:31:48;2.50;99.90
13944;DHT22;7044;53.286;8.534;2024-03-08T00:34:15;2.50;99.90
13944;DHT22;7044;53.286;8.534;2024-03-08T00:36:42;2.50;99.90
13944;DHT22;7044;53.286;8.534;2024-03-08T00:39:09;2.40;99.90
13944;DHT22;7044;53.286;8.534;2024-03-08T00:41:37;2.40;99.90
13944;DHT22;7044;53.286;8.534;2024-03-08T00:44:04;2.50;99.90
13944;DHT22;7044;53.286;8.534;2024-03-08T00:46:32;2.60;99.90
13944;DHT22;7044;53.286;8.534;2024-03-08T00:48:59;2.50;99.90
13944;DHT22;7044;53.286;8.534;2024-03-08T00:51:26;2.40;99.90
13944;DHT22;7044;53.286;8.534;2024-03-08T00:53:53;2.40;99.90
13944;DHT22;7044;53.286;8.534;2024-03-08T00:56:20;2.30;99.90
13944;DHT22;7044;53.286;8.534;2024-03-08T00:58:47;2.30;99.90
13944;DHT22;7044;53.286;8.534;2024-03-08T01:01:14;2.30;99.90
13944;DHT22;7044;53.286;8.534;2024-03-08T01:03:44;3.30;99.90
13944;DHT22;7044;53.286;8.534;2024-03-08T01:06:11;2.30;99.90
13944;DHT22;7044;53.286;8.534;2024-03-08T01:08:38;2.30;99.90
13944;DHT22;7044;53.286;8.534;2024-03-08T01:11:07;2.30;99.90
13944;DHT22;7044;53.286;8.534;2024-03-08T01:13:34;2.20;99.90
13944;DHT22;7044;53.286;8.534;2024-03-08T01:16:01;2.30;99.90
13944;DHT22;7044;53.286;8.534;2024-03-08T01:18:29;2.20;99.90
13944;DHT22;7044;53.286;8.534;2024-03-08T01:20:57;2.90;99.90
13944;DHT22;7044;53.286;8.534;2024-03-08T01:23:24;2.30;99.90
13944;DHT22;7044;53.286;8.534;2024-03-08T01:25:51;2.30;99.90
13944;DHT22;7044;53.286;8.534;2024-03-08T01:28:22;2.20;99.90
13944;DHT22;7044;53.286;8.534;2024-03-08T01:30:49;2.40;99.90
13944;DHT22;7044;53.286;8.534;2024-03-08T01:33:21;2.20;99.90
13944;DHT22;7044;53.286;8.534;2024-03-08T01:35:48;2.20;99.90
13944;DHT22;7044;53.286;8.534;2024-03-08T01:38:16;2.70;99.90
13944;DHT22;7044;53.286;8.534;2024-03-08T01:40:43;2.30;99.90
13944;DHT22;7044;53.286;8.534;2024-03-08T01:43:19;2.20;99.90
13944;DHT22;7044;53.286;8.534;2024-03-08T01:45:46;2.20;99.90
13944;DHT22;7044;53.286;8.534;2024-03-08T01:48:14;2.20;99.90
13944;DHT22;7044;53.286;8.534;2024-03-08T01:50:41;2.20;99.90
13944;DHT22;7044;53.286;8.534;2024-03-08T01:53:08;1.90;99.90
13944;DHT22;7044;53.286;8.534;2024-03-08T01:55:38;2.20;99.90
13944;DHT22;7044;53.286;8.534;2024-03-08T01:58:06;2.10;99.90
13944;DHT22;7044;53.286;8.534;2024-03-08T02:00:33;2.10;99.90
13944;DHT22;7044;53.286;8.534;2024-03-08T02:03:01;2.20;99.90
13944;DHT22;7044;53.286;8.534;2024-03-08T02:05:29;2.00;99.90
13944;DHT22;7044;53.286;8.534;2024-03-08T02:07:56;2.00;99.90
13944;DHT22;7044;53.286;8.534;2024-03-08T02:10:23;1.70;99.90
13944;DHT22;7044;53.286;8.534;2024-03-08T02:12:52;2.10;99.90
13944;DHT22;7044;53.286;8.534;2024-03-08T02:15:19;1.90;99.90
13944;DHT22;7044;53.286;8.534;2024-03-08T02:17:47;2.10;99.90
13944;DHT22;7044;53.286;8.534;2024-03-08T02:22:43;2.10;99.90
13944;DHT22;7044;53.286;8.534;2024-03-08T02:25:11;2.00;99.90
13944;DHT22;7044;53.286;8.534;2024-03-08T02:27:38;2.00;99.90
13944;DHT22;7044;53.286;8.534;2024-03-08T02:30:06;1.90;99.90
13944;DHT22;7044;53.286;8.534;2024-03-08T02:32:33;2.40;99.90
13944;DHT22;7044;53.286;8.534;2024-03-08T02:34:59;1.80;99.90
13944;DHT22;7044;53.286;8.534;2024-03-08T02:37:26;1.80;99.90
13944;DHT22;7044;53.286;8.534;2024-03-08T02:39:55;1.80;99.90
13944;DHT22;7044;53.286;8.534;2024-03-08T02:42:22;1.80;99.90
13944;DHT22;7044;53.286;8.534;2024-03-08T02:44:49;2.80;99.90
13944;DHT22;7044;53.286;8.534;2024-03-08T02:49:43;1.80;99.90
13944;DHT22;7044;53.286;8.534;2024-03-08T02:52:11;1.80;99.90
13944;DHT22;7044;53.286;8.534;2024-03-08T02:54:38;1.80;99.90
13944;DHT22;7044;53.286;8.534;2024-03-08T02:57:06;1.80;99.90
13944;DHT22;7044;53.286;8.534;2024-03-08T02:59:33;1.80;99.90
13944;DHT22;7044;53.286;8.534;2024-03-08T03:02:01;1.80;99.90
13944;DHT22;7044;53.286;8.534;2024-03-08T03:04:28;1.80;99.90
13944;DHT22;7044;53.286;8.534;2024-03-08T03:06:54;1.70;99.90
13944;DHT22;7044;53.286;8.534;2024-03-08T03:09:21;1.60;99.90
13944;DHT22;7044;53.286;8.534;2024-03-08T03:11:53;1.60;99.90
13944;DHT22;7044;53.286;8.534;2024-03-08T03:14:22;1.50;99.90
13944;DHT22;7044;53.286;8.534;2024-03-08T03:16:49;1.50;99.90
13944;DHT22;7044;53.286;8.534;2024-03-08T03:19:16;1.40;99.90
13944;DHT22;7044;53.286;8.534;2024-03-08T03:21:43;0.80;99.90
13944;DHT22;7044;53.286;8.534;2024-03-08T03:24:10;1.50;99.90
13944;DHT22;7044;53.286;8.534;2024-03-08T03:26:37;1.50;99.90
13944;DHT22;7044;53.286;8.534;2024-03-08T03:29:06;1.50;99.90
13944;DHT22;7044;53.286;8.534;2024-03-08T03:31:35;1.40;99.90
13944;DHT22;7044;53.286;8.534;2024-03-08T03:34:02;1.50;99.90
13944;DHT22;7044;53.286;8.534;2024-03-08T03:36:29;1.30;99.90
13944;DHT22;7044;53.286;8.534;2024-03-08T03:38:56;1.40;99.90
13944;DHT22;7044;53.286;8.534;2024-03-08T03:41:32;1.40;99.90
13944;DHT22;7044;53.286;8.534;2024-03-08T03:44:00;1.40;99.90
13944;DHT22;7044;53.286;8.534;2024-03-08T03:46:26;1.40;99.90
13944;DHT22;7044;53.286;8.534;2024-03-08T03:48:55;1.40;99.90
13944;DHT22;7044;53.286;8.534;2024-03-08T03:51:22;1.30;99.90
13944;DHT22;7044;53.286;8.534;2024-03-08T03:53:49;1.40;99.90
13944;DHT22;7044;53.286;8.534;2024-03-08T03:58:43;1.30;99.90
13944;DHT22;7044;53.286;8.534;2024-03-08T04:01:09;1.20;99.90
13944;DHT22;7044;53.286;8.534;2024-03-08T04:03:36;1.30;99.90
13944;DHT22;7044;53.286;8.534;2024-03-08T04:06:05;1.30;99.90
13944;DHT22;7044;53.286;8.534;2024-03-08T04:08:32;1.30;99.90
13944;DHT22;7044;53.286;8.534;2024-03-08T04:11:00;1.30;99.90
13944;DHT22;7044;53.286;8.534;2024-03-08T04:13:28;1.30;99.90
13944;DHT22;7044;53.286;8.534;2024-03-08T04:15:55;1.20;99.90
13944;DHT22;7044;53.286;8.534;2024-03-08T04:18:21;1.30;99.90
13944;DHT22;7044;53.286;8.534;2024-03-08T04:20:48;1.20;99.90
13944;DHT22;7044;53.286;8.534;2024-03-08T04:23:17;1.20;99.90
13944;DHT22;7044;53.286;8.534;2024-03-08T04:25:44;1.30;99.90
13944;DHT22;7044;53.286;8.534;2024-03-08T04:28:11;1.30;99.90
13944;DHT22;7044;53.286;8.534;2024-03-08T04:30:39;1.20;99.90
13944;DHT22;7044;53.286;8.534;2024-03-08T04:33:06;1.20;99.90
13944;DHT22;7044;53.286;8.534;2024-03-08T04:35:34;1.20;99.90
13944;DHT22;7044;53.286;8.534;2024-03-08T04:38:01;1.20;99.90
13944;DHT22;7044;53.286;8.534;2024-03-08T04:40:32;1.20;99.90
13944;DHT22;7044;53.286;8.534;2024-03-08T04:42:59;1.20;99.90
13944;DHT22;7044;53.286;8.534;2024-03-08T04:45:26;1.20;99.90
13944;DHT22;7044;53.286;8.534;2024-03-08T04:47:53;1.20;99.90
13944;DHT22;7044;53.286;8.534;2024-03-08T04:50:20;1.20;99.90
13944;DHT22;7044;53.286;8.534;2024-03-08T04:52:47;1.20;99.90
13944;DHT22;7044;53.286;8.534;2024-03-08T04:55:14;3.00;99.90
13944;DHT22;7044;53.286;8.534;2024-03-08T04:57:42;1.20;99.90
13944;DHT22;7044;53.286;8.534;2024-03-08T05:00:10;1.20;99.90
13944;DHT22;7044;53.286;8.534;2024-03-08T05:02:38;1.20;99.90
13944;DHT22;7044;53.286;8.534;2024-03-08T05:05:05;1.20;99.90
13944;DHT22;7044;53.286;8.534;2024-03-08T05:07:32;1.00;99.90
13944;DHT22;7044;53.286;8.534;2024-03-08T05:10:00;1.10;99.90
13944;DHT22;7044;53.286;8.534;2024-03-08T05:14:56;1.30;99.90
13944;DHT22;7044;53.286;8.534;2024-03-08T05:19:51;0.90;99.90
13944;DHT22;7044;53.286;8.534;2024-03-08T05:22:19;1.10;99.90
13944;DHT22;7044;53.286;8.534;2024-03-08T05:24:45;1.10;99.90
13944;DHT22;7044;53.286;8.534;2024-03-08T05:27:12;1.00;99.90
13944;DHT22;7044;53.286;8.534;2024-03-08T05:29:39;1.00;99.90
13944;DHT22;7044;53.286;8.534;2024-03-08T05:32:08;1.00;99.90
13944;DHT22;7044;53.286;8.534;2024-03-08T05:34:35;1.00;99.90
13944;DHT22;7044;53.286;8.534;2024-03-08T05:37:02;1.30;99.90
13944;DHT22;7044;53.286;8.534;2024-03-08T05:39:29;1.00;99.90
13944;DHT22;7044;53.286;8.534;2024-03-08T05:41:56;1.30;99.90
13944;DHT22;7044;53.286;8.534;2024-03-08T05:44:23;1.00;99.90
13944;DHT22;7044;53.286;8.534;2024-03-08T05:46:50;1.00;99.90
13944;DHT22;7044;53.286;8.534;2024-03-08T05:49:18;1.00;99.90
13944;DHT22;7044;53.286;8.534;2024-03-08T05:51:45;0.80;99.90
13944;DHT22;7044;53.286;8.534;2024-03-08T05:54:13;0.80;99.90
13944;DHT22;7044;53.286;8.534;2024-03-08T05:56:40;0.80;99.90
13944;DHT22;7044;53.286;8.534;2024-03-08T05:59:09;1.30;99.90
13944;DHT22;7044;53.286;8.534;2024-03-08T06:04:04;0.70;99.90
13944;DHT22;7044;53.286;8.534;2024-03-08T06:06:32;0.80;99.90
13944;DHT22;7044;53.286;8.534;2024-03-08T06:11:33;0.10;99.90
13944;DHT22;7044;53.286;8.534;2024-03-08T06:14:00;0.80;99.90
13944;DHT22;7044;53.286;8.534;2024-03-08T06:16:27;0.70;99.90
13944;DHT22;7044;53.286;8.534;2024-03-08T06:18:55;0.40;99.90
13944;DHT22;7044;53.286;8.534;2024-03-08T06:23:56;1.60;99.90
13944;DHT22;7044;53.286;8.534;2024-03-08T06:26:23;1.10;99.90
13944;DHT22;7044;53.286;8.534;2024-03-08T06:28:53;1.20;99.90
13944;DHT22;7044;53.286;8.534;2024-03-08T06:31:20;1.20;99.90
13944;DHT22;7044;53.286;8.534;2024-03-08T06:33:47;1.20;99.90
13944;DHT22;7044;53.286;8.534;2024-03-08T06:36:16;1.00;99.90
13944;DHT22;7044;53.286;8.534;2024-03-08T06:38:46;1.10;99.90
13944;DHT22;7044;53.286;8.534;2024-03-08T06:41:15;1.10;99.90
13944;DHT22;7044;53.286;8.534;2024-03-08T06:43:42;-0.70;99.90
13944;DHT22;7044;53.286;8.534;2024-03-08T06:46:09;1.10;99.90
13944;DHT22;7044;53.286;8.534;2024-03-08T06:48:38;1.10;99.90
13944;DHT22;7044;53.286;8.534;2024-03-08T06:51:05;1.10;99.90
13944;DHT22;7044;53.286;8.534;2024-03-08T06:56:00;1.20;99.90
13944;DHT22;7044;53.286;8.534;2024-03-08T06:58:28;0.30;99.90
13944;DHT22;7044;53.286;8.534;2024-03-08T07:00:55;1.30;99.90
13944;DHT22;7044;53.286;8.534;2024-03-08T07:03:24;4.30;99.90
13944;DHT22;7044;53.286;8.534;2024-03-08T07:05:52;1.40;99.90
13944;DHT22;7044;53.286;8.534;2024-03-08T07:08:19;1.40;99.90
13944;DHT22;7044;53.286;8.534;2024-03-08T07:10:48;3.30;99.90
13944;DHT22;7044;53.286;8.534;2024-03-08T07:13:15;1.60;99.90
13944;DHT22;7044;53.286;8.534;2024-03-08T07:15:43;1.60;99.90
13944;DHT22;7044;53.286;8.534;2024-03-08T07:18:11;1.60;99.90
13944;DHT22;7044;53.286;8.534;2024-03-08T07:20:40;-1.80;99.90
13944;DHT22;7044;53.286;8.534;2024-03-08T07:23:07;1.70;99.90
13944;DHT22;7044;53.286;8.534;2024-03-08T07:28:04;1.70;99.90
13944;DHT22;7044;53.286;8.534;2024-03-08T07:30:33;2.40;99.90
13944;DHT22;7044;53.286;8.534;2024-03-08T07:33:18;1.90;99.90
13944;DHT22;7044;53.286;8.534;2024-03-08T07:35:45;2.00;99.90
13944;DHT22;7044;53.286;8.534;2024-03-08T07:38:12;2.00;99.90
13944;DHT22;7044;53.286;8.534;2024-03-08T07:40:41;2.30;99.90
13944;DHT22;7044;53.286;8.534;2024-03-08T07:43:10;2.20;99.90
13944;DHT22;7044;53.286;8.534;2024-03-08T07:45:37;5.80;99.90
13944;DHT22;7044;53.286;8.534;2024-03-08T07:48:05;2.30;99.90
13944;DHT22;7044;53.286;8.534;2024-03-08T07:50:36;2.30;99.90
13944;DHT22;7044;53.286;8.534;2024-03-08T07:53:03;2.30;99.90
13944;DHT22;7044;53.286;8.534;2024-03-08T07:55:32;2.50;99.90
13944;DHT22;7044;53.286;8.534;2024-03-08T07:57:58;2.30;99.90
13944;DHT22;7044;53.286;8.534;2024-03-08T08:00:25;2.50;99.90
13944;DHT22;7044;53.286;8.534;2024-03-08T08:02:53;2.60;99.90
13944;DHT22;7044;53.286;8.534;2024-03-08T08:05:20;2.00;99.90
13944;DHT22;7044;53.286;8.534;2024-03-08T08:07:48;2.70;99.90
13944;DHT22;7044;53.286;8.534;2024-03-08T08:10:16;1.40;99.90
13944;DHT22;7044;53.286;8.534;2024-03-08T08:12:44;2.70;99.90
13944;DHT22;7044;53.286;8.534;2024-03-08T08:15:12;2.80;99.90
13944;DHT22;7044;53.286;8.534;2024-03-08T08:17:40;2.90;99.90
13944;DHT22;7044;53.286;8.534;2024-03-08T08:20:08;2.90;99.90
13944;DHT22;7044;53.286;8.534;2024-03-08T08:22:37;3.00;99.90
13944;DHT22;7044;53.286;8.534;2024-03-08T08:25:07;3.00;99.90
13944;DHT22;7044;53.286;8.534;2024-03-08T08:27:34;3.10;99.90
13944;DHT22;7044;53.286;8.534;2024-03-08T08:30:02;4.00;99.90
13944;DHT22;7044;53.286;8.534;2024-03-08T08:32:33;3.20;99.90
13944;DHT22;7044;53.286;8.534;2024-03-08T08:35:00;3.30;99.90
13944;DHT22;7044;53.286;8.534;2024-03-08T08:37:28;3.30;99.90
13944;DHT22;7044;53.286;8.534;2024-03-08T08:39:55;3.30;99.90
13944;DHT22;7044;53.286;8.534;2024-03-08T08:42:23;3.50;99.90
13944;DHT22;7044;53.286;8.534;2024-03-08T08:44:51;3.50;99.90
13944;DHT22;7044;53.286;8.534;2024-03-08T08:49:45;3.60;99.90
13944;DHT22;7044;53.286;8.534;2024-03-08T08:52:13;3.70;99.90
13944;DHT22;7044;53.286;8.534;2024-03-08T08:54:41;3.80;99.90
13944;DHT22;7044;53.286;8.534;2024-03-08T08:57:08;3.90;99.90
13944;DHT22;7044;53.286;8.534;2024-03-08T08:59:36;3.90;99.90
13944;DHT22;7044;53.286;8.534;2024-03-08T09:02:05;4.00;99.90
13944;DHT22;7044;53.286;8.534;2024-03-08T09:04:32;4.10;99.90
13944;DHT22;7044;53.286;8.534;2024-03-08T09:06:59;4.20;99.90
13944;DHT22;7044;53.286;8.534;2024-03-08T09:09:26;4.20;99.90
13944;DHT22;7044;53.286;8.534;2024-03-08T09:11:55;4.30;99.90
13944;DHT22;7044;53.286;8.534;2024-03-08T09:14:22;4.30;99.90
13944;DHT22;7044;53.286;8.534;2024-03-08T09:16:51;4.30;99.90
13944;DHT22;7044;53.286;8.534;2024-03-08T09:19:18;4.30;99.90
13944;DHT22;7044;53.286;8.534;2024-03-08T09:21:46;4.40;99.90
13944;DHT22;7044;53.286;8.534;2024-03-08T09:24:13;4.30;99.90
13944;DHT22;7044;53.286;8.534;2024-03-08T09:26:40;4.50;99.90
13944;DHT22;7044;53.286;8.534;2024-03-08T09:31:36;4.70;99.90
13944;DHT22;7044;53.286;8.534;2024-03-08T09:34:04;4.70;99.90
13944;DHT22;7044;53.286;8.534;2024-03-08T09:36:34;4.40;99.90
13944;DHT22;7044;53.286;8.534;2024-03-08T09:39:01;4.80;99.90
13944;DHT22;7044;53.286;8.534;2024-03-08T09:41:28;4.90;99.90
13944;DHT22;7044;53.286;8.534;2024-03-08T09:43:56;5.00;99.90
13944;DHT22;7044;53.286;8.534;2024-03-08T09:46:25;4.90;99.90
13944;DHT22;7044;53.286;8.534;2024-03-08T09:48:52;4.90;99.90
13944;DHT22;7044;53.286;8.534;2024-03-08T09:51:22;4.90;99.90
13944;DHT22;7044;53.286;8.534;2024-03-08T09:53:50;5.00;99.90
13944;DHT22;7044;53.286;8.534;2024-03-08T09:56:19;5.10;99.90
13944;DHT22;7044;53.286;8.534;2024-03-08T09:58:46;5.20;99.90
13944;DHT22;7044;53.286;8.534;2024-03-08T10:01:40;5.40;99.90
13944;DHT22;7044;53.286;8.534;2024-03-08T10:04:07;5.20;99.90
13944;DHT22;7044;53.286;8.534;2024-03-08T10:06:37;5.20;99.90
13944;DHT22;7044;53.286;8.534;2024-03-08T10:09:04;5.30;99.90
13944;DHT22;7044;53.286;8.534;2024-03-08T10:11:33;5.30;99.90
13944;DHT22;7044;53.286;8.534;2024-03-08T10:14:00;5.30;99.90
13944;DHT22;7044;53.286;8.534;2024-03-08T10:16:27;5.40;99.90
13944;DHT22;7044;53.286;8.534;2024-03-08T10:18:56;5.30;99.90
13944;DHT22;7044;53.286;8.534;2024-03-08T10:21:23;5.10;99.90
13944;DHT22;7044;53.286;8.534;2024-03-08T10:23:52;5.50;99.90
13944;DHT22;7044;53.286;8.534;2024-03-08T10:26:19;5.60;99.90
13944;DHT22;7044;53.286;8.534;2024-03-08T10:28:48;5.60;99.90
13944;DHT22;7044;53.286;8.534;2024-03-08T10:31:15;5.70;99.90
13944;DHT22;7044;53.286;8.534;2024-03-08T10:33:42;5.80;99.90
13944;DHT22;7044;53.286;8.534;2024-03-08T10:36:10;6.10;99.90
13944;DHT22;7044;53.286;8.534;2024-03-08T10:38:39;6.20;99.90
13944;DHT22;7044;53.286;8.534;2024-03-08T10:41:09;5.80;99.90
13944;DHT22;7044;53.286;8.534;2024-03-08T10:43:49;5.90;99.90
13944;DHT22;7044;53.286;8.534;2024-03-08T10:46:29;5.90;99.90
13944;DHT22;7044;53.286;8.534;2024-03-08T10:48:58;5.90;99.90
13944;DHT22;7044;53.286;8.534;2024-03-08T10:51:29;5.90;99.90
13944;DHT22;7044;53.286;8.534;2024-03-08T10:53:57;5.90;99.90
13944;DHT22;7044;53.286;8.534;2024-03-08T10:56:30;6.00;99.90
13944;DHT22;7044;53.286;8.534;2024-03-08T10:58:56;6.00;99.90
13944;DHT22;7044;53.286;8.534;2024-03-08T11:01:24;6.20;99.90
13944;DHT22;7044;53.286;8.534;2024-03-08T11:03:51;6.50;99.90
13944;DHT22;7044;53.286;8.534;2024-03-08T11:06:30;6.30;99.90
13944;DHT22;7044;53.286;8.534;2024-03-08T11:08:57;6.30;99.90
13944;DHT22;7044;53.286;8.534;2024-03-08T11:11:26;6.30;99.90
13944;DHT22;7044;53.286;8.534;2024-03-08T11:13:57;6.20;99.90
13944;DHT22;7044;53.286;8.534;2024-03-08T11:16:38;6.30;99.90
13944;DHT22;7044;53.286;8.534;2024-03-08T11:19:24;6.50;99.90
13944;DHT22;7044;53.286;8.534;2024-03-08T11:21:58;6.50;99.90
13944;DHT22;7044;53.286;8.534;2024-03-08T11:24:25;6.60;99.90
13944;DHT22;7044;53.286;8.534;2024-03-08T11:26:57;6.70;99.90
13944;DHT22;7044;53.286;8.534;2024-03-08T11:29:36;6.70;99.90
13944;DHT22;7044;53.286;8.534;2024-03-08T11:32:07;6.70;99.90
13944;DHT22;7044;53.286;8.534;2024-03-08T11:37:04;7.30;99.90
13944;DHT22;7044;53.286;8.534;2024-03-08T11:39:33;6.90;99.90
13944;DHT22;7044;53.286;8.534;2024-03-08T11:42:02;7.00;99.90
13944;DHT22;7044;53.286;8.534;2024-03-08T11:44:29;7.00;99.90
13944;DHT22;7044;53.286;8.534;2024-03-08T11:46:58;6.90;99.90
13944;DHT22;7044;53.286;8.534;2024-03-08T11:51:53;7.10;99.90
13944;DHT22;7044;53.286;8.534;2024-03-08T11:54:21;7.00;99.90
13944;DHT22;7044;53.286;8.534;2024-03-08T11:56:51;7.20;99.90
13944;DHT22;7044;53.286;8.534;2024-03-08T11:59:19;7.30;99.90
13944;DHT22;7044;53.286;8.534;2024-03-08T12:01:59;7.80;99.90
13944;DHT22;7044;53.286;8.534;2024-03-08T12:04:27;7.40;99.90
13944;DHT22;7044;53.286;8.534;2024-03-08T12:06:54;7.40;99.90
13944;DHT22;7044;53.286;8.534;2024-03-08T12:09:20;7.80;99.90
13944;DHT22;7044;53.286;8.534;2024-03-08T12:11:48;7.30;99.90
13944;DHT22;7044;53.286;8.534;2024-03-08T12:14:16;7.40;99.90
13944;DHT22;7044;53.286;8.534;2024-03-08T12:16:43;7.40;99.90
13944;DHT22;7044;53.286;8.534;2024-03-08T12:19:11;7.40;99.90
13944;DHT22;7044;53.286;8.534;2024-03-08T12:21:38;7.40;99.90
13944;DHT22;7044;53.286;8.534;2024-03-08T12:24:15;7.40;99.90
13944;DHT22;7044;53.286;8.534;2024-03-08T12:26:42;7.40;99.90
13944;DHT22;7044;53.286;8.534;2024-03-08T12:29:16;7.40;99.90
13944;DHT22;7044;53.286;8.534;2024-03-08T12:31:45;7.40;99.90
13944;DHT22;7044;53.286;8.534;2024-03-08T12:34:14;7.30;99.90
13944;DHT22;7044;53.286;8.534;2024-03-08T12:36:45;7.30;99.90
13944;DHT22;7044;53.286;8.534;2024-03-08T12:39:15;7.40;99.90
13944;DHT22;7044;53.286;8.534;2024-03-08T12:41:43;7.40;99.90
13944;DHT22;7044;53.286;8.534;2024-03-08T12:44:12;7.10;99.90
13944;DHT22;7044;53.286;8.534;2024-03-08T12:46:39;7.50;99.90
13944;DHT22;7044;53.286;8.534;2024-03-08T12:49:08;7.60;99.90
13944;DHT22;7044;53.286;8.534;2024-03-08T12:51:37;7.60;99.90
13944;DHT22;7044;53.286;8.534;2024-03-08T12:54:04;8.00;99.90
13944;DHT22;7044;53.286;8.534;2024-03-08T12:56:33;7.90;99.90
13944;DHT22;7044;53.286;8.534;2024-03-08T12:59:01;8.00;99.90
13944;DHT22;7044;53.286;8.534;2024-03-08T13:01:28;8.00;99.90
13944;DHT22;7044;53.286;8.534;2024-03-08T13:03:55;8.00;99.90
13944;DHT22;7044;53.286;8.534;2024-03-08T13:06:22;7.80;99.90
13944;DHT22;7044;53.286;8.534;2024-03-08T13:08:51;7.80;99.90
13944;DHT22;7044;53.286;8.534;2024-03-08T13:11:19;7.90;99.90
13944;DHT22;7044;53.286;8.534;2024-03-08T13:13:46;8.20;99.90
13944;DHT22;7044;53.286;8.534;2024-03-08T13:16:13;7.80;99.90
13944;DHT22;7044;53.286;8.534;2024-03-08T13:18:43;7.80;99.90
13944;DHT22;7044;53.286;8.534;2024-03-08T13:21:10;7.90;99.90
13944;DHT22;7044;53.286;8.534;2024-03-08T13:23:40;7.90;99.90
13944;DHT22;7044;53.286;8.534;2024-03-08T13:26:13;7.90;99.90
13944;DHT22;7044;53.286;8.534;2024-03-08T13:28:41;7.80;99.90
13944;DHT22;7044;53.286;8.534;2024-03-08T13:31:07;7.80;99.90
13944;DHT22;7044;53.286;8.534;2024-03-08T13:33:35;8.30;99.90
13944;DHT22;7044;53.286;8.534;2024-03-08T13:36:05;8.20;99.90
13944;DHT22;7044;53.286;8.534;2024-03-08T13:38:32;8.20;99.90
13944;DHT22;7044;53.286;8.534;2024-03-08T13:40:59;8.00;99.90
13944;DHT22;7044;53.286;8.534;2024-03-08T13:43:27;8.10;99.90
13944;DHT22;7044;53.286;8.534;2024-03-08T13:45:55;8.30;99.90
13944;DHT22;7044;53.286;8.534;2024-03-08T13:48:22;7.90;99.90
13944;DHT22;7044;53.286;8.534;2024-03-08T13:50:49;7.90;99.90
13944;DHT22;7044;53.286;8.534;2024-03-08T13:53:17;7.90;99.90
13944;DHT22;7044;53.286;8.534;2024-03-08T13:55:44;7.90;99.90
13944;DHT22;7044;53.286;8.534;2024-03-08T13:58:11;7.80;99.90
13944;DHT22;7044;53.286;8.534;2024-03-08T14:00:40;7.80;99.90
13944;DHT22;7044;53.286;8.534;2024-03-08T14:03:09;7.80;99.90
13944;DHT22;7044;53.286;8.534;2024-03-08T14:05:39;7.80;99.90
13944;DHT22;7044;53.286;8.534;2024-03-08T14:08:07;7.80;99.90
13944;DHT22;7044;53.286;8.534;2024-03-08T14:10:34;7.90;99.90
13944;DHT22;7044;53.286;8.534;2024-03-08T14:13:03;7.90;99.90
13944;DHT22;7044;53.286;8.534;2024-03-08T14:15:30;7.80;99.90
13944;DHT22;7044;53.286;8.534;2024-03-08T14:17:59;7.90;99.90
13944;DHT22;7044;53.286;8.534;2024-03-08T14:20:27;8.00;99.90
13944;DHT22;7044;53.286;8.534;2024-03-08T14:22:54;8.00;99.90
13944;DHT22;7044;53.286;8.534;2024-03-08T14:25:22;8.40;99.90
13944;DHT22;7044;53.286;8.534;2024-03-08T14:27:49;8.10;99.90
13944;DHT22;7044;53.286;8.534;2024-03-08T14:30:19;8.20;99.90
13944;DHT22;7044;53.286;8.534;2024-03-08T14:32:59;8.20;99.90
13944;DHT22;7044;53.286;8.534;2024-03-08T14:37:55;8.20;99.90
13944;DHT22;7044;53.286;8.534;2024-03-08T14:40:22;8.10;99.90
13944;DHT22;7044;53.286;8.534;2024-03-08T14:42:49;8.00;99.90
13944;DHT22;7044;53.286;8.534;2024-03-08T14:45:16;8.20;99.90
13944;DHT22;7044;53.286;8.534;2024-03-08T14:47:45;8.20;99.90
13944;DHT22;7044;53.286;8.534;2024-03-08T14:50:16;8.20;99.90
13944;DHT22;7044;53.286;8.534;2024-03-08T14:52:43;8.20;99.90
13944;DHT22;7044;53.286;8.534;2024-03-08T14:55:11;8.20;99.90
13944;DHT22;7044;53.286;8.534;2024-03-08T14:57:40;8.10;99.90
13944;DHT22;7044;53.286;8.534;2024-03-08T15:00:08;8.10;99.90
13944;DHT22;7044;53.286;8.534;2024-03-08T15:02:42;8.00;99.90
13944;DHT22;7044;53.286;8.534;2024-03-08T15:05:09;8.20;99.90
13944;DHT22;7044;53.286;8.534;2024-03-08T15:07:38;8.10;99.90
13944;DHT22;7044;53.286;8.534;2024-03-08T15:10:07;8.10;99.90
13944;DHT22;7044;53.286;8.534;2024-03-08T15:12:37;8.10;99.90
13944;DHT22;7044;53.286;8.534;2024-03-08T15:15:07;8.10;99.90
13944;DHT22;7044;53.286;8.534;2024-03-08T15:17:35;8.20;99.90
13944;DHT22;7044;53.286;8.534;2024-03-08T15:20:06;8.30;99.90
13944;DHT22;7044;53.286;8.534;2024-03-08T15:22:42;8.30;99.90
13944;DHT22;7044;53.286;8.534;2024-03-08T15:25:09;8.10;99.90
13944;DHT22;7044;53.286;8.534;2024-03-08T15:27:42;8.10;99.90
13944;DHT22;7044;53.286;8.534;2024-03-08T15:30:10;8.00;99.90
13944;DHT22;7044;53.286;8.534;2024-03-08T15:32:39;8.00;99.90
13944;DHT22;7044;53.286;8.534;2024-03-08T15:35:07;8.00;99.90
13944;DHT22;7044;53.286;8.534;2024-03-08T15:37:39;8.00;99.90
13944;DHT22;7044;53.286;8.534;2024-03-08T15:40:10;8.20;99.90
13944;DHT22;7044;53.286;8.534;2024-03-08T15:42:54;8.10;99.90
13944;DHT22;7044;53.286;8.534;2024-03-08T15:45:21;8.00;99.90
13944;DHT22;7044;53.286;8.534;2024-03-08T15:47:49;8.00;99.90
13944;DHT22;7044;53.286;8.534;2024-03-08T15:50:16;8.00;99.90
13944;DHT22;7044;53.286;8.534;2024-03-08T15:52:44;8.10;99.90
13944;DHT22;7044;53.286;8.534;2024-03-08T15:55:16;8.10;99.90
13944;DHT22;7044;53.286;8.534;2024-03-08T15:57:45;7.90;99.90
13944;DHT22;7044;53.286;8.534;2024-03-08T16:00:14;7.80;99.90
13944;DHT22;7044;53.286;8.534;2024-03-08T16:02:56;7.90;99.90
13944;DHT22;7044;53.286;8.534;2024-03-08T16:05:23;7.90;99.90
13944;DHT22;7044;53.286;8.534;2024-03-08T16:07:50;7.90;99.90
13944;DHT22;7044;53.286;8.534;2024-03-08T16:10:18;8.60;99.90
13944;DHT22;7044;53.286;8.534;2024-03-08T16:12:45;8.00;99.90
13944;DHT22;7044;53.286;8.534;2024-03-08T16:15:12;7.90;99.90
13944;DHT22;7044;53.286;8.534;2024-03-08T16:17:39;7.90;99.90
13944;DHT22;7044;53.286;8.534;2024-03-08T16:20:06;7.90;99.90
13944;DHT22;7044;53.286;8.534;2024-03-08T16:22:37;7.90;99.90
13944;DHT22;7044;53.286;8.534;2024-03-08T16:25:03;7.80;99.90
13944;DHT22;7044;53.286;8.534;2024-03-08T16:27:31;7.80;99.90
13944;DHT22;7044;53.286;8.534;2024-03-08T16:29:58;7.70;99.90
13944;DHT22;7044;53.286;8.534;2024-03-08T16:32:25;7.50;99.90
13944;DHT22;7044;53.286;8.534;2024-03-08T16:34:52;7.60;99.90
13944;DHT22;7044;53.286;8.534;2024-03-08T16:37:19;7.70;99.90
13944;DHT22;7044;53.286;8.534;2024-03-08T16:39:47;7.80;99.90
13944;DHT22;7044;53.286;8.534;2024-03-08T16:42:14;7.70;99.90
13944;DHT22;7044;53.286;8.534;2024-03-08T16:44:43;7.60;99.90
13944;DHT22;7044;53.286;8.534;2024-03-08T16:47:10;6.90;99.90